»·PEaware :: DAL931 KSLC-KRNO

DAL931 :: KSLC-KRNO

FLIGHT INFORMATION

Flight Status: Arrived
Operator:
Delta Air Lines
More flights by this operator :: More flights under this callsign
Pilot: John C. (18682)
Aircraft: BOEING 737-800
(B738)
More flights by this aircraft type
Origin: KSLC Salt Lake City Intl
United States
Destination: KRNO Reno/Tahoe Intl
United States
More flights between these airports :: More routes between these airports
Route: DEZRT1 BAM MYBAD MYBAD2
File this flight plan on PilotEdge
Remarks:
Altitude:
(Current/Filed)
38,000ft
Speed:
(Current/Filed)
462kts
Departed: 05-Oct-18 07:26 PM
Arrived: 05-Oct-18 08:44 PM
Distance/Time
Traveled:
366nm/1:18
Distance/Time
To Go:
Arrived

Flight Plot

Page will automatically refresh every two minutes.

Flight plan parsing failed; only flown route is shown


Map Options




Map Legend


Flown Route
Filed Route
Departure Airport
Arrival Airport
Navaid (VOR, NDB)
Fix

Horizontal Profiles

Position Reports

Time Latitude Longitude Heading Altitude Ground
Speed
05-Oct-18 18:56 40.787355 -111.981182 283 4234ft 0kts
05-Oct-18 18:57 40.787355 -111.981182 283 4234ft 0kts
05-Oct-18 18:58 40.787355 -111.981182 283 4234ft 0kts
05-Oct-18 18:59 40.787355 -111.981182 283 4234ft 0kts
05-Oct-18 19:00 40.787355 -111.981182 283 4234ft 0kts
05-Oct-18 19:01 40.787355 -111.981182 283 4234ft 0kts
05-Oct-18 19:02 40.787355 -111.981182 283 4234ft 0kts
05-Oct-18 19:03 40.787355 -111.981182 283 4234ft 0kts
05-Oct-18 19:04 40.787355 -111.981182 283 4234ft 0kts
05-Oct-18 19:05 40.787355 -111.981182 283 4234ft 0kts
05-Oct-18 19:06 40.787355 -111.981182 283 4234ft 0kts
05-Oct-18 19:07 40.787355 -111.981182 283 4234ft 0kts
05-Oct-18 19:08 40.787355 -111.981182 283 4234ft 0kts
05-Oct-18 19:09 40.787355 -111.981182 283 4234ft 0kts
05-Oct-18 19:10 40.787355 -111.981182 283 4235ft 0kts
05-Oct-18 19:11 40.787355 -111.981182 283 4234ft 0kts
05-Oct-18 19:12 40.787355 -111.981182 283 4235ft 0kts
05-Oct-18 19:13 40.787355 -111.981182 283 4235ft 0kts
05-Oct-18 19:14 40.787336 -111.981074 282 4235ft 2kts
05-Oct-18 19:15 40.787201 -111.980303 283 4235ft 2kts
05-Oct-18 19:16 40.787480 -111.980349 11 4235ft 2kts
05-Oct-18 19:17 40.787547 -111.980318 19 4235ft 0kts
05-Oct-18 19:18 40.787793 -111.980207 18 4235ft 8kts
05-Oct-18 19:19 40.789443 -111.979679 38 4234ft 8kts
05-Oct-18 19:20 40.789732 -111.977908 84 4235ft 0kts
05-Oct-18 19:21 40.789732 -111.977908 84 4235ft 0kts
05-Oct-18 19:22 40.789732 -111.977908 84 4235ft 0kts
05-Oct-18 19:23 40.787824 -111.976835 175 4235ft 14kts
05-Oct-18 19:24 40.783483 -111.976337 174 4235ft 18kts
05-Oct-18 19:25 40.777900 -111.975182 174 4235ft 20kts
05-Oct-18 19:26 40.774751 -111.974755 151 4235ft 0kts
05-Oct-18 19:27 40.774673 -111.974693 146 4235ft 3kts
05-Oct-18 19:28 40.777010 -111.973410 354 4235ft 47kts
05-Oct-18 19:29 40.814983 -111.979102 338 4931ft 180kts
05-Oct-18 19:30 40.833321 -112.037003 271 6076ft 228kts
05-Oct-18 19:31 40.835338 -112.133219 278 8166ft 264kts
05-Oct-18 19:32 40.847393 -112.233618 278 10292ft 290kts
05-Oct-18 19:33 40.860889 -112.345087 278 12328ft 316kts
05-Oct-18 19:34 40.871098 -112.461037 265 14971ft 325kts
05-Oct-18 19:35 40.862418 -112.580767 264 15165ft 326kts
05-Oct-18 19:36 40.852667 -112.700759 263 17790ft 334kts
05-Oct-18 19:37 40.842500 -112.824052 263 20228ft 343kts
05-Oct-18 19:38 40.841935 -112.950909 269 22468ft 352kts
05-Oct-18 19:39 40.842381 -113.081163 269 24487ft 360kts
05-Oct-18 19:40 40.842628 -113.215234 269 26277ft 370kts
05-Oct-18 19:41 40.842716 -113.352322 270 27940ft 378kts
05-Oct-18 19:42 40.842648 -113.492114 270 29517ft 384kts
05-Oct-18 19:43 40.842421 -113.632448 270 31351ft 379kts
05-Oct-18 19:44 40.841961 -113.769099 269 33032ft 373kts
05-Oct-18 19:45 40.841297 -113.904783 269 34512ft 369kts
05-Oct-18 19:46 40.840435 -114.039429 269 35781ft 366kts
05-Oct-18 19:47 40.839441 -114.173267 270 36848ft 365kts
05-Oct-18 19:48 40.838300 -114.306699 270 37776ft 365kts
05-Oct-18 19:49 40.837010 -114.442281 269 38123ft 380kts
05-Oct-18 19:50 40.835463 -114.586207 269 38123ft 404kts
05-Oct-18 19:51 40.833609 -114.735141 269 38120ft 408kts
05-Oct-18 19:52 40.818463 -114.883303 262 38113ft 409kts
05-Oct-18 19:53 40.801614 -115.030978 262 38108ft 407kts
05-Oct-18 19:54 40.784757 -115.177270 264 38107ft 404kts
05-Oct-18 19:55 40.768273 -115.319182 264 38106ft 404kts
05-Oct-18 19:56 40.751101 -115.465596 264 38104ft 404kts
05-Oct-18 19:57 40.733803 -115.611294 264 38103ft 404kts
05-Oct-18 19:58 40.716259 -115.756790 263 38111ft 405kts
05-Oct-18 19:59 40.698501 -115.902478 263 38110ft 404kts
05-Oct-18 20:00 40.680516 -116.048723 263 38108ft 404kts
05-Oct-18 20:01 40.662422 -116.194461 263 38106ft 404kts
05-Oct-18 20:02 40.644158 -116.340133 263 38093ft 404kts
05-Oct-18 20:03 40.625706 -116.485812 263 38086ft 404kts
05-Oct-18 20:04 40.607087 -116.631272 263 38085ft 404kts
05-Oct-18 20:05 40.588239 -116.776353 263 38092ft 405kts
05-Oct-18 20:06 40.569121 -116.922127 263 38093ft 404kts
05-Oct-18 20:07 40.550949 -117.065836 264 38080ft 396kts
05-Oct-18 20:08 40.532585 -117.207569 264 38087ft 393kts
05-Oct-18 20:09 40.514387 -117.349344 264 38091ft 393kts
05-Oct-18 20:10 40.496416 -117.490713 264 38089ft 394kts
05-Oct-18 20:11 40.478615 -117.632107 264 38093ft 393kts
05-Oct-18 20:12 40.460979 -117.773136 264 38101ft 394kts
05-Oct-18 20:13 40.443495 -117.914697 264 38096ft 394kts
05-Oct-18 20:14 40.426176 -118.056207 264 38098ft 394kts
05-Oct-18 20:15 40.409072 -118.197082 265 38046ft 377kts
05-Oct-18 20:16 40.393522 -118.326555 265 38052ft 361kts
05-Oct-18 20:17 40.352654 -118.448806 246 37090ft 372kts
05-Oct-18 20:18 40.299009 -118.565368 245 35282ft 379kts
05-Oct-18 20:19 40.248395 -118.680266 249 32803ft 369kts
05-Oct-18 20:20 40.201626 -118.800727 248 30441ft 369kts
05-Oct-18 20:21 40.155863 -118.916947 248 28663ft 351kts
05-Oct-18 20:22 40.112287 -119.027285 248 27003ft 333kts
05-Oct-18 20:23 40.070841 -119.131890 248 25328ft 321kts
05-Oct-18 20:24 40.029801 -119.235358 247 23807ft 331kts
05-Oct-18 20:25 39.988512 -119.338731 247 22283ft 314kts
05-Oct-18 20:26 39.949175 -119.436925 247 20863ft 300kts
05-Oct-18 20:27 39.905083 -119.532927 242 19471ft 314kts
05-Oct-18 20:28 39.861908 -119.621745 238 18171ft 278kts
05-Oct-18 20:29 39.817292 -119.687262 232 17485ft 239kts
05-Oct-18 20:30 39.772417 -119.751957 232 16768ft 255kts
05-Oct-18 20:31 39.707083 -119.764657 163 15735ft 281kts
05-Oct-18 20:32 39.635627 -119.728722 162 14637ft 274kts
05-Oct-18 20:33 39.566173 -119.694155 162 13634ft 270kts
05-Oct-18 20:34 39.495578 -119.666815 172 12371ft 267kts
05-Oct-18 20:35 39.423221 -119.649724 172 11009ft 254kts
05-Oct-18 20:36 39.354160 -119.633604 172 10166ft 248kts
05-Oct-18 20:37 39.286692 -119.618045 172 9179ft 248kts
05-Oct-18 20:38 39.220480 -119.611193 206 8999ft 231kts
05-Oct-18 20:39 39.208441 -119.673382 307 9015ft 207kts
05-Oct-18 20:40 39.253294 -119.716312 325 8733ft 197kts
05-Oct-18 20:41 39.299720 -119.752822 330 8362ft 197kts
05-Oct-18 20:42 39.350731 -119.766865 352 7370ft 188kts
05-Oct-18 20:43 39.400207 -119.768105 356 6165ft 165kts
05-Oct-18 20:44 39.443357 -119.769151 355 5419ft 158kts
05-Oct-18 20:45 39.485968 -119.769275 357 4459ft 155kts
05-Oct-18 20:46 39.502922 -119.769669 335 4410ft 8kts
05-Oct-18 20:47 39.504381 -119.771493 357 4410ft 12kts
05-Oct-18 20:48 39.505938 -119.773184 270 4413ft 6kts
05-Oct-18 20:49 39.505267 -119.773665 180 4414ft 1kts
05-Oct-18 20:50 39.505257 -119.773665 180 4414ft 0kts
05-Oct-18 20:51 39.505257 -119.773665 180 4414ft 0kts
05-Oct-18 20:52 39.505257 -119.773665 180 4414ft 0kts

Navigation Log

Ident Type
Flight plan parsing failed, navigation log unavailable